Time;durP1;ratioP1;P1;durP2;ratioP2;P2;SDS_P1;SDS_P2;PMS_P1;PMS_P2;Temp;Humidity;BMP_temperature;BMP_pressure;BME280_temperature;BME280_humidity;BME280_pressure;Samples;Min_cycle;Max_cycle;Signal;HPM_P1;HPM_P2
2021/05/14 00:00:17;;;;;;;1.88;1.77;;;11.00;99.90;;;;;;5094163;28;20229;-41
2021/05/14 00:02:44;;;;;;;4.93;3.05;;;11.00;99.90;;;;;;5093265;28;20246;-41
2021/05/14 00:05:13;;;;;;;4.35;2.33;;;10.90;99.90;;;;;;5093523;28;20306;-41
2021/05/14 00:07:40;;;;;;;5.35;2.20;;;10.90;99.90;;;;;;5093667;28;20318;-41
2021/05/14 00:10:09;;;;;;;6.28;4.25;;;10.90;99.90;;;;;;5093669;28;20661;-41
2021/05/14 00:12:36;;;;;;;10.32;4.53;;;10.80;99.90;;;;;;5093608;28;20298;-42
2021/05/14 00:15:05;;;;;;;2.20;2.00;;;10.80;99.90;;;;;;5093262;28;20704;-41
2021/05/14 00:17:34;;;;;;;2.13;1.92;;;10.70;99.90;;;;;;5093674;28;20203;-41
2021/05/14 00:20:02;;;;;;;7.78;5.97;;;10.70;99.90;;;;;;5093457;28;20214;-39
2021/05/14 00:22:31;;;;;;;4.38;3.30;;;10.70;99.90;;;;;;5093234;28;20210;-38
2021/05/14 00:24:58;;;;;;;2.92;2.40;;;10.60;99.90;;;;;;5093188;28;20329;-38
2021/05/14 00:27:26;;;;;;;2.08;1.88;;;10.50;99.90;;;;;;5093147;28;20237;-40
2021/05/14 00:29:53;;;;;;;4.45;2.78;;;10.50;99.90;;;;;;5092880;28;20225;-40
2021/05/14 00:32:21;;;;;;;5.03;3.05;;;10.40;99.90;;;;;;5093320;28;20290;-40
2021/05/14 00:34:48;;;;;;;4.22;2.75;;;10.40;99.90;;;;;;5093309;28;20297;-40
2021/05/14 00:37:15;;;;;;;3.85;3.45;;;10.30;99.90;;;;;;5093337;28;20745;-40
2021/05/14 00:39:44;;;;;;;2.00;1.90;;;10.30;99.90;;;;;;5092863;28;20664;-41
2021/05/14 00:42:12;;;;;;;3.50;3.10;;;10.30;99.90;;;;;;5092709;28;20215;-40
2021/05/14 00:44:43;;;;;;;2.80;2.17;;;10.20;99.90;;;;;;5092858;28;20588;-40
2021/05/14 00:47:11;;;;;;;6.32;2.78;;;10.20;99.90;;;;;;5093218;28;20325;-40
2021/05/14 00:49:39;;;;;;;3.38;2.03;;;10.20;99.90;;;;;;5092975;28;20306;-40
2021/05/14 00:52:08;;;;;;;5.25;2.53;;;10.20;99.90;;;;;;5092807;28;20206;-40
2021/05/14 00:54:37;;;;;;;1.95;1.85;;;10.20;99.90;;;;;;5092942;28;20284;-40
2021/05/14 00:57:06;;;;;;;2.75;2.55;;;10.20;99.90;;;;;;5092704;28;20293;-40
2021/05/14 00:59:34;;;;;;;4.05;1.67;;;10.10;99.90;;;;;;5093008;28;20251;-40
2021/05/14 01:02:02;;;;;;;3.15;2.22;;;10.10;99.90;;;;;;5092718;28;20628;-40
2021/05/14 01:04:30;;;;;;;1.92;1.83;;;10.10;99.90;;;;;;5092659;28;20222;-40
2021/05/14 01:06:57;;;;;;;2.75;2.28;;;10.00;99.90;;;;;;5093086;28;20265;-40
2021/05/14 01:09:25;;;;;;;2.05;1.58;;;10.00;99.90;;;;;;5092517;28;20218;-40
2021/05/14 01:11:52;;;;;;;2.08;1.73;;;10.00;99.90;;;;;;5092769;28;20299;-40
2021/05/14 01:14:21;;;;;;;3.17;1.80;;;9.90;99.90;;;;;;5092219;28;20242;-40
2021/05/14 01:16:49;;;;;;;1.73;1.63;;;9.90;99.90;;;;;;5092163;28;20280;-40
2021/05/14 01:19:16;;;;;;;2.20;1.88;;;9.90;99.90;;;;;;5092455;28;20237;-40
2021/05/14 01:21:45;;;;;;;1.80;1.70;;;9.90;99.90;;;;;;5092314;28;20264;-40
2021/05/14 01:24:13;;;;;;;1.83;1.63;;;9.90;99.90;;;;;;5092239;28;20242;-40
2021/05/14 01:26:40;;;;;;;2.83;2.00;;;9.90;99.90;;;;;;5091198;28;20257;-39
2021/05/14 01:29:10;;;;;;;2.13;1.90;;;9.90;99.90;;;;;;5092190;28;20367;-40
2021/05/14 01:31:38;;;;;;;2.53;1.63;;;9.90;99.90;;;;;;5092318;28;20207;-40
2021/05/14 01:34:07;;;;;;;2.83;1.88;;;9.80;99.90;;;;;;5092140;28;20619;-40
2021/05/14 01:36:35;;;;;;;2.25;1.90;;;9.80;99.90;;;;;;5092107;28;20301;-40
2021/05/14 01:39:11;;;;;;;1.75;1.38;;;9.70;99.90;;;;;;5092292;28;20230;-40
2021/05/14 01:41:39;;;;;;;2.10;1.90;;;9.70;99.90;;;;;;5092283;28;20289;-40
2021/05/14 01:44:07;;;;;;;2.15;1.70;;;9.60;99.90;;;;;;5092270;28;20203;-39
2021/05/14 01:46:35;;;;;;;1.90;1.70;;;9.60;99.90;;;;;;5091912;28;20223;-38
2021/05/14 01:49:03;;;;;;;3.50;1.80;;;9.60;99.90;;;;;;5091942;28;20206;-38
2021/05/14 01:51:30;;;;;;;2.50;1.70;;;9.60;99.90;;;;;;5092226;28;20607;-38
2021/05/14 01:53:58;;;;;;;1.95;1.60;;;9.60;99.90;;;;;;5092053;28;20297;-38
2021/05/14 01:56:26;;;;;;;2.00;1.90;;;9.60;99.90;;;;;;5092139;28;20230;-41
2021/05/14 01:58:54;;;;;;;1.95;1.85;;;9.50;99.90;;;;;;5091963;28;20309;-39
2021/05/14 02:01:22;;;;;;;3.88;1.95;;;9.50;99.90;;;;;;5091804;28;20550;-39
2021/05/14 02:03:49;;;;;;;1.77;1.67;;;9.50;99.90;;;;;;5092194;28;20203;-39
2021/05/14 02:06:17;;;;;;;1.95;1.75;;;9.50;99.90;;;;;;5091973;28;20231;-39
2021/05/14 02:08:45;;;;;;;1.67;1.58;;;9.50;99.90;;;;;;5091670;28;20600;-40
2021/05/14 02:11:13;;;;;;;1.95;1.67;;;9.40;99.90;;;;;;5091848;28;20310;-39
2021/05/14 02:13:41;;;;;;;1.95;1.60;;;9.40;99.90;;;;;;5091826;28;20336;-38
2021/05/14 02:16:10;;;;;;;2.85;1.80;;;9.40;99.90;;;;;;5091981;28;20210;-40
2021/05/14 02:18:39;;;;;;;2.30;1.48;;;9.30;99.90;;;;;;5092009;28;20229;-40
2021/05/14 02:21:07;;;;;;;3.10;1.70;;;9.30;99.90;;;;;;5091789;28;20673;-40
2021/05/14 02:23:36;;;;;;;4.05;2.00;;;9.30;99.90;;;;;;5091420;28;20572;-40
2021/05/14 02:26:04;;;;;;;2.28;1.73;;;9.30;99.90;;;;;;5092155;28;20335;-40
2021/05/14 02:28:32;;;;;;;2.13;1.90;;;9.30;99.90;;;;;;5095486;28;20257;-40
2021/05/14 02:31:01;;;;;;;2.50;2.00;;;9.20;99.90;;;;;;5095492;28;20629;-39
2021/05/14 02:33:29;;;;;;;2.33;1.92;;;9.20;99.90;;;;;;5095732;28;20235;-39
2021/05/14 02:35:56;;;;;;;3.78;2.03;;;9.20;99.90;;;;;;5095428;28;20297;-40
2021/05/14 02:38:24;;;;;;;1.60;1.50;;;9.20;99.90;;;;;;5095515;28;20230;-39
2021/05/14 02:40:51;;;;;;;2.15;1.95;;;9.10;99.90;;;;;;5095356;28;20238;-39
2021/05/14 02:43:18;;;;;;;2.67;2.28;;;9.10;99.90;;;;;;5095324;28;20210;-40
2021/05/14 02:45:46;;;;;;;2.72;2.20;;;9.10;99.90;;;;;;5095434;28;20294;-40
2021/05/14 02:48:16;;;;;;;2.00;1.88;;;9.10;99.90;;;;;;5095353;28;20226;-40
2021/05/14 02:50:44;;;;;;;4.57;1.92;;;9.10;99.90;;;;;;5095302;28;20625;-40
2021/05/14 02:53:12;;;;;;;2.22;2.03;;;9.00;99.90;;;;;;5093898;28;20218;-40
2021/05/14 02:55:39;;;;;;;3.60;2.22;;;9.00;99.90;;;;;;5095052;28;20687;-40
2021/05/14 02:58:07;;;;;;;2.30;1.88;;;9.00;99.90;;;;;;5095243;28;20203;-40
2021/05/14 03:00:34;;;;;;;1.90;1.50;;;9.00;99.90;;;;;;5095238;28;20249;-40
2021/05/14 03:03:01;;;;;;;2.55;1.67;;;9.00;99.90;;;;;;5095098;28;20238;-41
2021/05/14 03:05:30;;;;;;;3.50;1.90;;;8.90;99.90;;;;;;5094915;28;20260;-40
2021/05/14 03:07:57;;;;;;;3.22;2.20;;;8.90;99.90;;;;;;5094629;28;20265;-40
2021/05/14 03:10:25;;;;;;;1.80;1.70;;;8.90;99.90;;;;;;5095124;28;20214;-40
2021/05/14 03:12:52;;;;;;;1.90;1.80;;;8.90;99.90;;;;;;5094667;28;20680;-40
2021/05/14 03:15:20;;;;;;;3.28;2.13;;;8.80;99.90;;;;;;5094815;28;20669;-40
2021/05/14 03:17:48;;;;;;;1.95;1.75;;;8.80;99.90;;;;;;5094803;28;20234;-40
2021/05/14 03:20:16;;;;;;;3.03;1.88;;;8.80;99.90;;;;;;5094573;28;20211;-40
2021/05/14 03:22:44;;;;;;;4.22;1.90;;;8.80;99.90;;;;;;5094520;28;20206;-40
2021/05/14 03:25:12;;;;;;;4.25;2.88;;;8.80;99.90;;;;;;5094568;28;20238;-40
2021/05/14 03:27:40;;;;;;;2.47;2.28;;;8.80;99.90;;;;;;5094658;28;20314;-40
2021/05/14 03:30:09;;;;;;;4.13;3.28;;;8.70;99.90;;;;;;5094541;28;20314;-41
2021/05/14 03:32:37;;;;;;;2.45;1.60;;;8.70;99.90;;;;;;5094502;28;20242;-40
2021/05/14 03:35:05;;;;;;;2.72;2.10;;;8.70;99.90;;;;;;5094266;28;20234;-40
2021/05/14 03:37:33;;;;;;;2.00;1.90;;;8.70;99.90;;;;;;5093685;28;20291;-40
2021/05/14 03:40:04;;;;;;;4.05;1.90;;;8.70;99.90;;;;;;5094025;28;20606;-41
2021/05/14 03:42:32;;;;;;;3.88;1.80;;;8.60;99.90;;;;;;5094305;28;20241;-40
2021/05/14 03:44:59;;;;;;;3.28;1.67;;;8.60;99.90;;;;;;5094302;28;20294;-40
2021/05/14 03:47:27;;;;;;;1.70;1.60;;;8.60;99.90;;;;;;5094167;28;20318;-40
2021/05/14 03:49:54;;;;;;;2.25;2.05;;;8.60;99.90;;;;;;5094031;28;20297;-40
2021/05/14 03:52:23;;;;;;;2.97;2.13;;;8.60;99.90;;;;;;5094256;28;20574;-40
2021/05/14 03:54:50;;;;;;;3.40;2.03;;;8.60;99.90;;;;;;5094048;28;20207;-40
2021/05/14 03:57:18;;;;;;;2.35;2.10;;;8.60;99.90;;;;;;5093950;28;20260;-42
2021/05/14 03:59:46;;;;;;;2.28;2.03;;;8.60;99.90;;;;;;5094052;28;20211;-40
2021/05/14 04:02:13;;;;;;;6.32;2.33;;;8.50;99.90;;;;;;5093478;28;20237;-41
2021/05/14 04:04:41;;;;;;;2.80;2.10;;;8.60;99.90;;;;;;5093711;28;20217;-40
2021/05/14 04:07:09;;;;;;;3.58;1.90;;;8.50;99.90;;;;;;5093320;28;20215;-41
2021/05/14 04:09:38;;;;;;;2.83;2.25;;;8.50;99.90;;;;;;5093675;28;20279;-40
2021/05/14 04:12:12;;;;;;;2.47;2.28;;;8.60;99.90;;;;;;5093670;28;20275;-40
2021/05/14 04:14:40;;;;;;;6.60;5.05;;;8.50;99.90;;;;;;5093546;28;20245;-40
2021/05/14 04:17:24;;;;;;;3.33;2.97;;;8.60;99.90;;;;;;5093588;28;20610;-40
2021/05/14 04:19:52;;;;;;;6.80;5.82;;;8.60;99.90;;;;;;5093265;28;20738;-40
2021/05/14 04:22:19;;;;;;;3.97;2.50;;;8.70;99.90;;;;;;5093143;28;20215;-40
2021/05/14 04:24:47;;;;;;;2.17;2.00;;;8.70;99.90;;;;;;5093388;28;20307;-40
2021/05/14 04:27:14;;;;;;;3.20;2.90;;;8.80;99.90;;;;;;5093136;28;20245;-40
2021/05/14 04:29:43;;;;;;;7.75;5.53;;;8.90;99.90;;;;;;5093504;28;20237;-40
2021/05/14 04:32:11;;;;;;;5.18;2.88;;;8.90;99.90;;;;;;5093262;28;20254;-40
2021/05/14 04:34:39;;;;;;;3.35;2.20;;;9.00;99.90;;;;;;5093355;28;20207;-40
2021/05/14 04:37:07;;;;;;;2.42;2.20;;;9.10;99.90;;;;;;5093247;28;20207;-38
2021/05/14 04:39:35;;;;;;;3.45;2.88;;;9.10;99.90;;;;;;5093059;28;20212;-37
2021/05/14 04:42:02;;;;;;;3.80;2.95;;;9.20;99.90;;;;;;5093319;28;20351;-38
2021/05/14 04:44:31;;;;;;;3.10;2.80;;;9.40;99.90;;;;;;5093088;28;20215;-39
2021/05/14 04:47:00;;;;;;;3.55;2.55;;;9.40;99.90;;;;;;5093113;28;20225;-39
2021/05/14 04:49:27;;;;;;;3.63;3.20;;;9.60;99.90;;;;;;5092988;28;20272;-39
2021/05/14 04:51:55;;;;;;;4.13;2.83;;;9.70;99.90;;;;;;5092897;28;20661;-38
2021/05/14 04:54:24;;;;;;;4.15;2.83;;;10.00;99.90;;;;;;5093268;28;20210;-38
2021/05/14 04:56:51;;;;;;;3.22;2.63;;;10.20;99.90;;;;;;5093117;28;20259;-38
2021/05/14 04:59:20;;;;;;;3.25;2.22;;;10.30;99.90;;;;;;5090861;28;20230;-38
2021/05/14 05:01:48;;;;;;;2.20;2.00;;;10.50;99.90;;;;;;5091405;28;20215;-39
2021/05/14 05:04:17;;;;;;;2.63;2.30;;;10.60;99.90;;;;;;5092140;28;20238;-39
2021/05/14 05:06:44;;;;;;;2.25;1.88;;;10.60;99.90;;;;;;5092510;28;20260;-39
2021/05/14 05:09:12;;;;;;;3.17;2.00;;;10.70;99.90;;;;;;5092617;28;20226;-39
2021/05/14 05:11:39;;;;;;;3.10;1.90;;;10.60;99.90;;;;;;5092717;28;20215;-39
2021/05/14 05:14:07;;;;;;;1.50;1.38;;;10.50;99.90;;;;;;5092469;28;20296;-39
2021/05/14 05:16:34;;;;;;;2.58;1.92;;;10.50;99.90;;;;;;5092549;28;20389;-40
2021/05/14 05:19:02;;;;;;;2.60;2.17;;;10.30;99.90;;;;;;5092498;28;20206;-40
2021/05/14 05:21:30;;;;;;;3.35;2.40;;;10.30;99.90;;;;;;5092416;28;20238;-39
2021/05/14 05:23:57;;;;;;;2.65;1.60;;;10.40;99.90;;;;;;5092388;28;20554;-38
2021/05/14 05:26:27;;;;;;;3.70;3.15;;;10.50;99.90;;;;;;5092362;28;20305;-40
2021/05/14 05:28:55;;;;;;;9.27;7.97;;;10.60;99.90;;;;;;5092207;28;20689;-40
2021/05/14 05:31:24;;;;;;;3.45;2.80;;;10.70;99.90;;;;;;5092341;28;20238;-40
2021/05/14 05:33:52;;;;;;;3.20;2.05;;;10.80;99.90;;;;;;5091695;28;20679;-40
2021/05/14 05:36:19;;;;;;;6.45;4.38;;;10.80;99.90;;;;;;5092231;28;20272;-40
2021/05/14 05:38:49;;;;;;;3.45;3.13;;;10.80;99.90;;;;;;5092093;28;20364;-39
2021/05/14 05:41:17;;;;;;;2.85;2.08;;;10.90;99.90;;;;;;5091928;28;20206;-39
2021/05/14 05:43:44;;;;;;;2.33;2.13;;;11.00;99.90;;;;;;5091547;28;20253;-40
2021/05/14 05:46:12;;;;;;;3.85;2.97;;;11.00;99.90;;;;;;5091802;28;20294;-40
2021/05/14 05:48:45;;;;;;;3.38;2.05;;;11.00;99.90;;;;;;5091824;28;20226;-40
2021/05/14 05:51:13;;;;;;;4.95;2.67;;;11.10;99.90;;;;;;5092019;28;20206;-42
2021/05/14 05:53:40;;;;;;;4.10;1.83;;;11.30;99.90;;;;;;5091683;28;20345;-40
2021/05/14 05:56:09;;;;;;;2.38;1.42;;;11.30;99.90;;;;;;5092078;28;20207;-39
2021/05/14 05:58:36;;;;;;;3.28;2.05;;;11.40;99.90;;;;;;5092063;28;20629;-39
2021/05/14 06:01:04;;;;;;;1.42;1.33;;;11.60;99.90;;;;;;5092085;28;20202;-39
2021/05/14 06:03:32;;;;;;;2.20;1.77;;;11.70;99.90;;;;;;5096297;28;20289;-39
2021/05/14 06:05:59;;;;;;;3.17;1.60;;;11.80;99.90;;;;;;5096354;28;20271;-38
2021/05/14 06:08:28;;;;;;;1.27;1.17;;;11.90;99.90;;;;;;5095995;28;20262;-39
2021/05/14 06:10:55;;;;;;;2.10;1.50;;;12.10;99.90;;;;;;5095887;28;20207;-39
2021/05/14 06:13:24;;;;;;;1.92;1.63;;;12.20;99.90;;;;;;5095816;28;20532;-40
2021/05/14 06:15:53;;;;;;;3.03;1.52;;;12.40;99.90;;;;;;5095910;28;20638;-39
2021/05/14 06:18:22;;;;;;;1.98;1.60;;;12.50;99.90;;;;;;5095473;28;20283;-39
2021/05/14 06:20:50;;;;;;;3.30;1.70;;;12.70;99.90;;;;;;5095968;28;20293;-40
2021/05/14 06:23:17;;;;;;;1.70;1.27;;;12.90;99.90;;;;;;5095835;28;20206;-40
2021/05/14 06:25:45;;;;;;;3.72;1.60;;;13.10;99.90;;;;;;5095592;28;20234;-40
2021/05/14 06:28:18;;;;;;;2.58;1.33;;;13.20;99.90;;;;;;5095499;28;20226;-41
2021/05/14 06:30:46;;;;;;;1.63;1.38;;;13.20;99.90;;;;;;5095769;28;20555;-42
2021/05/14 06:33:14;;;;;;;2.63;1.30;;;13.10;99.90;;;;;;5095562;28;20211;-43
2021/05/14 06:35:42;;;;;;;3.67;1.67;;;13.00;99.90;;;;;;5095539;28;20692;-41
2021/05/14 06:38:10;;;;;;;3.22;1.50;;;12.80;99.90;;;;;;5095502;28;20480;-41
2021/05/14 06:40:37;;;;;;;1.27;1.15;;;12.60;99.90;;;;;;5095432;28;20637;-41
2021/05/14 06:43:05;;;;;;;4.78;1.65;;;12.40;99.90;;;;;;5095407;28;20628;-41
2021/05/14 06:45:32;;;;;;;2.83;1.52;;;12.30;99.90;;;;;;5095589;28;20289;-40
2021/05/14 06:48:04;;;;;;;2.85;1.20;;;12.20;99.90;;;;;;5095225;28;20313;-40
2021/05/14 06:50:32;;;;;;;4.93;2.13;;;12.20;99.90;;;;;;5095307;28;20761;-41
2021/05/14 06:53:02;;;;;;;2.67;1.55;;;12.20;99.90;;;;;;5095252;28;20225;-39
2021/05/14 06:55:29;;;;;;;3.65;1.65;;;12.40;99.90;;;;;;5095380;28;20297;-40
2021/05/14 06:57:57;;;;;;;1.52;1.33;;;12.50;99.90;;;;;;5095097;28;20281;-40
2021/05/14 07:00:24;;;;;;;2.97;1.80;;;12.70;99.90;;;;;;5095248;28;20230;-39
2021/05/14 07:02:52;;;;;;;2.60;1.23;;;12.90;99.90;;;;;;5094936;28;20242;-40
2021/05/14 07:05:21;;;;;;;1.60;1.50;;;13.10;99.90;;;;;;5094870;28;20207;-40
2021/05/14 07:07:48;;;;;;;1.30;1.20;;;13.30;99.90;;;;;;5094824;28;20680;-40
2021/05/14 07:10:16;;;;;;;1.20;1.10;;;13.40;99.90;;;;;;5094686;28;20244;-40
2021/05/14 07:12:43;;;;;;;1.40;1.30;;;13.50;99.90;;;;;;5093771;28;20578;-40
2021/05/14 07:15:11;;;;;;;1.10;0.93;;;13.60;99.90;;;;;;5094718;28;20264;-40
2021/05/14 07:17:39;;;;;;;2.55;1.35;;;13.60;99.90;;;;;;5094653;28;20252;-41
2021/05/14 07:20:08;;;;;;;1.42;1.00;;;13.70;99.90;;;;;;5094648;28;20207;-40
2021/05/14 07:22:36;;;;;;;3.35;1.08;;;13.80;99.90;;;;;;5094741;28;20238;-42
2021/05/14 07:25:05;;;;;;;1.88;1.38;;;13.90;99.90;;;;;;5094344;28;20278;-39
2021/05/14 07:27:37;;;;;;;2.20;1.35;;;13.90;99.90;;;;;;5094734;28;20210;-39
2021/05/14 07:30:06;;;;;;;1.23;1.00;;;14.10;99.90;;;;;;5094392;28;20262;-39
2021/05/14 07:32:34;;;;;;;1.67;0.80;;;14.20;99.90;;;;;;5094454;28;20286;-39
2021/05/14 07:35:01;;;;;;;1.88;1.10;;;14.30;99.70;;;;;;5094471;28;20253;-40
2021/05/14 07:37:29;;;;;;;1.58;1.48;;;14.40;99.40;;;;;;5094207;28;20210;-39
2021/05/14 07:39:57;;;;;;;2.25;1.15;;;14.60;99.10;;;;;;5094061;28;20720;-40
2021/05/14 07:42:25;;;;;;;4.07;1.90;;;14.70;98.80;;;;;;5094249;28;20301;-40
2021/05/14 07:44:52;;;;;;;1.73;1.10;;;14.70;98.30;;;;;;5094193;28;20211;-40
2021/05/14 07:47:20;;;;;;;1.45;0.95;;;14.60;98.10;;;;;;5094028;28;20446;-40
2021/05/14 07:49:47;;;;;;;1.63;0.93;;;14.70;97.80;;;;;;5094298;28;20613;-40
2021/05/14 07:52:15;;;;;;;1.13;0.75;;;14.80;97.30;;;;;;5094240;28;20202;-40
2021/05/14 07:54:43;;;;;;;0.93;0.90;;;14.90;96.90;;;;;;5094246;28;20507;-40
2021/05/14 07:57:11;;;;;;;2.15;0.90;;;14.90;96.60;;;;;;5094105;28;20246;-41
2021/05/14 07:59:39;;;;;;;1.95;0.98;;;14.90;96.30;;;;;;5093801;28;20234;-41
2021/05/14 08:02:06;;;;;;;1.65;0.98;;;14.90;96.10;;;;;;5093871;28;20238;-41
2021/05/14 08:04:34;;;;;;;3.60;2.42;;;14.90;96.00;;;;;;5093954;28;20217;-40
2021/05/14 08:07:01;;;;;;;1.85;0.68;;;14.80;95.80;;;;;;5094024;28;20207;-42
2021/05/14 08:09:29;;;;;;;3.55;1.02;;;14.80;95.80;;;;;;5093553;28;20318;-41
2021/05/14 08:11:56;;;;;;;2.53;0.85;;;14.80;95.80;;;;;;5093722;28;20293;-40
2021/05/14 08:14:24;;;;;;;1.50;0.95;;;14.70;95.70;;;;;;5093645;28;20251;-40
2021/05/14 08:16:52;;;;;;;1.67;0.90;;;14.70;95.70;;;;;;5093746;28;20297;-40
2021/05/14 08:19:20;;;;;;;2.00;1.10;;;14.80;95.80;;;;;;5093578;28;20234;-40
2021/05/14 08:21:47;;;;;;;2.17;0.70;;;14.90;95.50;;;;;;5093630;28;20289;-41
2021/05/14 08:24:15;;;;;;;0.82;0.80;;;15.00;95.20;;;;;;5092893;28;20276;-39
2021/05/14 08:26:43;;;;;;;1.05;0.88;;;15.10;95.30;;;;;;5093452;28;20495;-39
2021/05/14 08:29:12;;;;;;;2.35;1.30;;;15.20;95.10;;;;;;5093719;28;20227;-41
2021/05/14 08:31:41;;;;;;;1.70;0.80;;;15.40;94.90;;;;;;5093440;28;20714;-40
2021/05/14 08:34:10;;;;;;;2.03;0.95;;;15.50;94.20;;;;;;5093378;28;20203;-41
2021/05/14 08:36:38;;;;;;;2.08;0.95;;;15.60;94.00;;;;;;5093408;28;20297;-41
2021/05/14 08:39:07;;;;;;;1.05;0.70;;;15.70;94.20;;;;;;5093182;28;20692;-41
2021/05/14 08:41:35;;;;;;;1.60;1.10;;;15.80;93.90;;;;;;5093115;28;20285;-41
2021/05/14 08:44:05;;;;;;;2.05;1.10;;;15.80;93.70;;;;;;5093210;28;20673;-41
2021/05/14 08:46:35;;;;;;;2.35;0.80;;;15.80;93.60;;;;;;5093256;28;20309;-41
2021/05/14 08:49:14;;;;;;;3.15;0.85;;;16.00;93.30;;;;;;5093193;28;20566;-42
2021/05/14 08:51:42;;;;;;;0.70;0.60;;;16.20;92.80;;;;;;5093074;28;20230;-43
2021/05/14 08:54:10;;;;;;;0.80;0.80;;;16.40;92.30;;;;;;5093197;28;20367;-44
2021/05/14 08:56:37;;;;;;;1.13;0.57;;;16.50;92.20;;;;;;5092884;28;20599;-44
2021/05/14 08:59:05;;;;;;;1.65;0.70;;;16.70;91.40;;;;;;5093025;28;20241;-42
2021/05/14 09:01:33;;;;;;;3.28;1.25;;;16.80;91.40;;;;;;5092790;28;20623;-46
2021/05/14 09:04:05;;;;;;;2.30;1.00;;;17.00;91.10;;;;;;5092879;28;20640;-44
2021/05/14 09:06:36;;;;;;;0.73;0.73;;;17.10;91.00;;;;;;5092996;28;20225;-45
2021/05/14 09:09:05;;;;;;;0.77;0.60;;;17.20;91.00;;;;;;5092934;28;20291;-45
2021/05/14 09:11:38;;;;;;;0.63;0.60;;;17.20;90.40;;;;;;5092812;28;20577;-42
2021/05/14 09:14:07;;;;;;;1.67;0.75;;;17.10;90.20;;;;;;5092544;28;20256;-43
2021/05/14 09:16:42;;;;;;;0.73;0.52;;;16.80;90.50;;;;;;5092561;28;20289;-40
2021/05/14 09:19:10;;;;;;;0.90;0.90;;;16.70;90.70;;;;;;5092419;28;20228;-40
2021/05/14 09:21:42;;;;;;;1.05;0.80;;;16.70;90.90;;;;;;5092457;28;20664;-44
2021/05/14 09:24:10;;;;;;;0.80;0.55;;;16.70;90.30;;;;;;5092226;28;20595;-42
2021/05/14 09:26:37;;;;;;;0.70;0.70;;;16.70;89.90;;;;;;5092542;28;20228;-40
2021/05/14 09:29:13;;;;;;;0.93;0.70;;;16.70;89.50;;;;;;5092281;28;20226;-43
2021/05/14 09:31:41;;;;;;;0.43;0.38;;;16.80;88.80;;;;;;5092285;28;20615;-40
2021/05/14 09:34:08;;;;;;;1.23;0.40;;;17.00;87.90;;;;;;5092159;28;20206;-42
2021/05/14 09:36:36;;;;;;;3.25;1.17;;;17.20;86.90;;;;;;5091433;28;20301;-39
2021/05/14 09:39:06;;;;;;;1.45;0.63;;;17.40;86.00;;;;;;5092252;28;20206;-40
2021/05/14 09:41:36;;;;;;;0.65;0.65;;;17.70;85.20;;;;;;5091968;28;20218;-40
2021/05/14 09:44:06;;;;;;;3.13;0.90;;;17.90;85.00;;;;;;5091988;28;20210;-41
2021/05/14 09:46:40;;;;;;;0.65;0.47;;;18.00;84.70;;;;;;5092392;28;20241;-40
2021/05/14 09:49:09;;;;;;;0.75;0.70;;;18.00;84.70;;;;;;5092252;28;20222;-41
2021/05/14 09:51:47;;;;;;;0.93;0.57;;;17.80;85.40;;;;;;5091536;28;20335;-39
2021/05/14 09:54:23;;;;;;;0.70;0.70;;;17.60;84.30;;;;;;5092031;28;20289;-40
2021/05/14 09:57:31;;;;;;;1.55;0.40;;;17.20;85.80;;;;;;5091941;28;20673;-39
2021/05/14 10:00:02;;;;;;;0.93;0.70;;;17.00;86.80;;;;;;5091966;28;20238;-40
2021/05/14 10:02:33;;;;;;;5.45;4.88;;;16.90;87.10;;;;;;5092447;28;20203;-41
2021/05/14 10:05:03;;;;;;;0.60;0.57;;;17.00;87.50;;;;;;5092327;28;20309;-40
2021/05/14 10:07:32;;;;;;;0.60;0.60;;;17.10;86.80;;;;;;5092333;28;20238;-39
2021/05/14 10:10:03;;;;;;;0.57;0.57;;;17.20;86.20;;;;;;5092192;28;20223;-40
2021/05/14 10:12:31;;;;;;;2.67;0.60;;;17.40;85.20;;;;;;5091909;28;20210;-39
2021/05/14 10:15:01;;;;;;;1.50;0.22;;;17.40;83.90;;;;;;5091811;28;20613;-40
2021/05/14 10:17:29;;;;;;;1.42;0.40;;;17.40;83.40;;;;;;5091473;28;20305;-39
2021/05/14 10:19:59;;;;;;;1.90;0.50;;;17.40;82.80;;;;;;5091676;28;20257;-40
2021/05/14 10:22:29;;;;;;;0.70;0.55;;;17.40;83.40;;;;;;5092058;28;20244;-39
2021/05/14 10:24:58;;;;;;;1.05;0.65;;;17.40;83.80;;;;;;5091735;28;20341;-39
2021/05/14 10:27:28;;;;;;;0.63;0.50;;;17.20;83.40;;;;;;5091785;28;20297;-40
2021/05/14 10:29:57;;;;;;;0.50;0.47;;;17.20;83.20;;;;;;5091933;28;20296;-40
2021/05/14 10:32:50;;;;;;;0.68;0.60;;;17.30;83.00;;;;;;5091776;28;20670;-39
2021/05/14 10:35:24;;;;;;;0.95;0.38;;;17.40;82.00;;;;;;5091675;28;20726;-40
2021/05/14 10:37:53;;;;;;;1.75;0.50;;;17.30;80.30;;;;;;5091712;28;20298;-39
2021/05/14 10:40:43;;;;;;;0.70;0.68;;;17.10;81.80;;;;;;5091873;28;20234;-39
2021/05/14 10:43:13;;;;;;;0.93;0.70;;;17.20;79.80;;;;;;5091590;28;20298;-39
2021/05/14 10:45:41;;;;;;;1.30;0.65;;;17.40;80.70;;;;;;5091678;28;20633;-39
2021/05/14 10:48:17;;;;;;;1.35;0.43;;;17.70;80.00;;;;;;5093637;28;20306;-39
2021/05/14 10:50:46;;;;;;;1.60;0.95;;;17.90;79.20;;;;;;5095291;28;20564;-41
2021/05/14 10:53:32;;;;;;;2.30;1.00;;;18.10;78.30;;;;;;5095053;28;20687;-41
2021/05/14 10:56:47;;;;;;;0.43;0.43;;;18.40;76.90;;;;;;5095240;28;20234;-40
2021/05/14 10:59:15;;;;;;;1.27;0.52;;;18.70;75.00;;;;;;5095396;28;20269;-40
2021/05/14 11:01:43;;;;;;;1.55;0.43;;;18.80;75.90;;;;;;5095154;28;20206;-40
2021/05/14 11:04:40;;;;;;;1.70;1.48;;;18.80;75.20;;;;;;5095207;28;20299;-41
2021/05/14 11:07:39;;;;;;;3.03;0.40;;;18.70;73.30;;;;;;5094944;28;20206;-40
2021/05/14 11:10:35;;;;;;;0.55;0.50;;;18.70;74.20;;;;;;5094730;28;20586;-40
2021/05/14 11:13:34;;;;;;;0.93;0.40;;;18.70;74.30;;;;;;5094827;28;20229;-41
2021/05/14 11:16:35;;;;;;;1.05;0.70;;;18.70;74.30;;;;;;5094989;28;20617;-41
2021/05/14 11:19:12;;;;;;;0.40;0.35;;;19.00;74.20;;;;;;5095042;28;20217;-42
2021/05/14 11:22:05;;;;;;;0.98;0.73;;;19.20;73.20;;;;;;5094690;28;20301;-41
2021/05/14 11:24:38;;;;;;;0.57;0.38;;;19.00;73.20;;;;;;5092497;28;20274;-41
2021/05/14 11:27:11;;;;;;;0.32;0.25;;;18.80;74.60;;;;;;5094749;28;20297;-40
2021/05/14 11:29:45;;;;;;;0.28;0.28;;;18.60;74.50;;;;;;5094476;28;20266;-40
2021/05/14 11:32:18;;;;;;;2.30;1.20;;;18.60;73.70;;;;;;5094496;28;20211;-40
2021/05/14 11:34:57;;;;;;;0.50;0.50;;;18.70;73.00;;;;;;5094554;28;20645;-39
2021/05/14 11:37:28;;;;;;;0.40;0.32;;;18.50;72.00;;;;;;5094713;28;20264;-39
2021/05/14 11:39:56;;;;;;;0.82;0.30;;;18.30;72.80;;;;;;5094278;28;20238;-40
2021/05/14 11:42:25;;;;;;;1.30;0.93;;;18.20;73.00;;;;;;5094161;28;20246;-40
2021/05/14 11:45:03;;;;;;;0.95;0.80;;;18.20;73.20;;;;;;5094149;28;20207;-40
2021/05/14 11:47:30;;;;;;;0.55;0.30;;;18.40;72.20;;;;;;5094449;28;20286;-40
2021/05/14 11:49:59;;;;;;;2.10;0.40;;;18.70;71.60;;;;;;5094117;28;20264;-40
2021/05/14 11:52:35;;;;;;;0.73;0.30;;;18.80;71.70;;;;;;5093994;28;20210;-41
2021/05/14 11:55:09;;;;;;;0.60;0.40;;;18.70;72.20;;;;;;5093999;28;20210;-40
2021/05/14 11:57:38;;;;;;;0.63;0.50;;;18.50;73.20;;;;;;5094324;28;20301;-41
2021/05/14 12:00:09;;;;;;;0.50;0.40;;;18.20;73.70;;;;;;5093318;28;20238;-42
2021/05/14 12:02:42;;;;;;;0.35;0.30;;;17.90;74.60;;;;;;5094089;28;20293;-39
2021/05/14 12:05:13;;;;;;;1.55;0.63;;;17.70;75.00;;;;;;5094086;28;20210;-40
2021/05/14 12:07:43;;;;;;;0.40;0.40;;;17.60;74.70;;;;;;5093833;28;20657;-40
2021/05/14 12:10:16;;;;;;;1.48;0.35;;;17.60;74.80;;;;;;5093676;28;20226;-40
2021/05/14 12:12:44;;;;;;;0.93;0.60;;;18.00;74.10;;;;;;5093952;28;20669;-40
2021/05/14 12:15:18;;;;;;;2.78;0.50;;;18.40;72.90;;;;;;5093826;28;20221;-40
2021/05/14 12:17:48;;;;;;;0.47;0.43;;;18.80;70.20;;;;;;5094189;28;20217;-39
2021/05/14 12:20:32;;;;;;;0.70;0.50;;;19.20;69.80;;;;;;5093544;28;20669;-41
2021/05/14 12:23:02;;;;;;;0.98;0.50;;;19.50;68.40;;;;;;5093710;28;20214;-40
2021/05/14 12:25:40;;;;;;;0.50;0.40;;;19.60;67.90;;;;;;5093407;28;20616;-44
2021/05/14 12:28:45;;;;;;;0.40;0.40;;;19.60;67.60;;;;;;5093606;28;20203;-40
2021/05/14 12:31:24;;;;;;;0.40;0.30;;;19.60;67.60;;;;;;5093539;28;20280;-40
2021/05/14 12:33:52;;;;;;;1.25;0.80;;;19.70;66.90;;;;;;5093620;28;20210;-40
2021/05/14 12:36:25;;;;;;;1.40;0.77;;;19.80;67.60;;;;;;5093248;28;20301;-40
2021/05/14 12:38:54;;;;;;;0.65;0.65;;;19.80;66.80;;;;;;5093275;28;20232;-40
2021/05/14 12:41:30;;;;;;;0.63;0.40;;;19.70;66.80;;;;;;5093438;28;20256;-39
2021/05/14 12:44:17;;;;;;;1.60;0.52;;;19.60;65.30;;;;;;5093297;28;20238;-41
2021/05/14 12:47:12;;;;;;;0.77;0.70;;;19.60;66.30;;;;;;5093316;28;20294;-40
2021/05/14 12:49:44;;;;;;;2.10;0.90;;;20.00;65.60;;;;;;5093336;28;20207;-39
2021/05/14 12:52:14;;;;;;;0.70;0.63;;;20.30;64.50;;;;;;5093052;28;20723;-39
2021/05/14 12:54:54;;;;;;;1.20;0.52;;;20.40;64.50;;;;;;5093092;28;20629;-40
2021/05/14 12:57:30;;;;;;;1.30;0.50;;;20.50;64.70;;;;;;5092754;28;20256;-39
2021/05/14 12:59:58;;;;;;;1.48;0.75;;;20.50;64.10;;;;;;5092860;28;20301;-39
2021/05/14 13:02:29;;;;;;;2.15;0.70;;;20.30;64.50;;;;;;5092938;28;20297;-39
2021/05/14 13:04:59;;;;;;;0.65;0.60;;;20.20;64.50;;;;;;5092915;28;20258;-39